Ochlocknee, Georgia
Current Conditions -  °F | °C
As of 8:35 AM on Wednesday 22 Oct 2014 (Local Time) from KTVI Reporting Station
Clear Clear  
Wind Chill: 57°   Ceiling: Unl
Heat Index: 57°   Visibility: 10mi
Dew Point: 57°   Wind: 5mph
Humidity: 100%   Direction: 360°N
Pressure: 30.06"   Gusts: NA
Location:  30.97°N, 84.05°W
Report Text: KTVI 221235Z AUTO 36004KT 10SM CLR 14/14 A3006 RMK AO2
Loading
Personal Weather Stations






























Interactive Weather Map
Tropical Storm Tracking
New forecast layout! Learn more

10-Day Weather Forecast

Advertisements
Track Severe Weather on mobile